sensor_id;sensor_type;location;lat;lon;timestamp;temperature;humidity
13697;DHT22;6920;50.080;8.226;2023-02-13T00:00:23;7.60;99.90
13697;DHT22;6920;50.080;8.226;2023-02-13T00:02:50;7.70;99.90
13697;DHT22;6920;50.080;8.226;2023-02-13T00:05:17;7.70;99.90
13697;DHT22;6920;50.080;8.226;2023-02-13T00:10:12;7.60;99.90
13697;DHT22;6920;50.080;8.226;2023-02-13T00:12:40;7.50;99.90
13697;DHT22;6920;50.080;8.226;2023-02-13T00:15:07;7.50;99.90
13697;DHT22;6920;50.080;8.226;2023-02-13T00:17:36;7.40;99.90
13697;DHT22;6920;50.080;8.226;2023-02-13T00:20:04;7.30;99.90
13697;DHT22;6920;50.080;8.226;2023-02-13T00:22:34;7.30;99.90
13697;DHT22;6920;50.080;8.226;2023-02-13T00:25:02;7.30;99.90
13697;DHT22;6920;50.080;8.226;2023-02-13T00:27:29;7.20;99.90
13697;DHT22;6920;50.080;8.226;2023-02-13T00:29:56;7.10;99.90
13697;DHT22;6920;50.080;8.226;2023-02-13T00:39:46;6.40;99.90
13697;DHT22;6920;50.080;8.226;2023-02-13T00:42:14;6.40;99.90
13697;DHT22;6920;50.080;8.226;2023-02-13T00:47:08;6.30;99.90
13697;DHT22;6920;50.080;8.226;2023-02-13T00:49:39;6.30;99.90
13697;DHT22;6920;50.080;8.226;2023-02-13T00:52:08;6.30;99.90
13697;DHT22;6920;50.080;8.226;2023-02-13T00:54:35;6.20;99.90
13697;DHT22;6920;50.080;8.226;2023-02-13T00:57:02;6.20;99.90
13697;DHT22;6920;50.080;8.226;2023-02-13T00:59:29;6.20;99.90
13697;DHT22;6920;50.080;8.226;2023-02-13T01:01:56;6.10;99.90
13697;DHT22;6920;50.080;8.226;2023-02-13T01:04:24;6.00;99.90
13697;DHT22;6920;50.080;8.226;2023-02-13T01:09:20;5.80;99.90
13697;DHT22;6920;50.080;8.226;2023-02-13T01:14:14;7.50;99.90
13697;DHT22;6920;50.080;8.226;2023-02-13T01:16:41;5.60;99.90
13697;DHT22;6920;50.080;8.226;2023-02-13T01:21:36;5.60;99.90
13697;DHT22;6920;50.080;8.226;2023-02-13T01:24:04;5.50;99.90
13697;DHT22;6920;50.080;8.226;2023-02-13T01:26:33;5.60;99.90
13697;DHT22;6920;50.080;8.226;2023-02-13T01:33:57;5.40;99.90
13697;DHT22;6920;50.080;8.226;2023-02-13T01:36:25;5.30;99.90
13697;DHT22;6920;50.080;8.226;2023-02-13T01:38:53;5.20;99.90
13697;DHT22;6920;50.080;8.226;2023-02-13T01:43:51;5.00;99.90
13697;DHT22;6920;50.080;8.226;2023-02-13T01:46:27;4.70;99.90
13697;DHT22;6920;50.080;8.226;2023-02-13T01:48:58;4.60;99.90
13697;DHT22;6920;50.080;8.226;2023-02-13T01:51:30;4.60;99.90
13697;DHT22;6920;50.080;8.226;2023-02-13T01:54:00;4.60;99.90
13697;DHT22;6920;50.080;8.226;2023-02-13T01:56:33;4.70;99.90
13697;DHT22;6920;50.080;8.226;2023-02-13T01:59:06;4.70;99.90
13697;DHT22;6920;50.080;8.226;2023-02-13T02:01:34;4.60;99.90
13697;DHT22;6920;50.080;8.226;2023-02-13T02:04:06;4.60;99.90
13697;DHT22;6920;50.080;8.226;2023-02-13T02:06:37;4.60;99.90
13697;DHT22;6920;50.080;8.226;2023-02-13T02:09:09;4.70;99.90
13697;DHT22;6920;50.080;8.226;2023-02-13T02:11:43;4.60;99.90
13697;DHT22;6920;50.080;8.226;2023-02-13T02:14:13;4.60;99.90
13697;DHT22;6920;50.080;8.226;2023-02-13T02:16:41;4.60;99.90
13697;DHT22;6920;50.080;8.226;2023-02-13T02:19:16;4.60;99.90
13697;DHT22;6920;50.080;8.226;2023-02-13T02:22:16;4.50;99.90
13697;DHT22;6920;50.080;8.226;2023-02-13T02:27:59;4.30;99.90
13697;DHT22;6920;50.080;8.226;2023-02-13T02:31:03;4.30;99.90
13697;DHT22;6920;50.080;8.226;2023-02-13T02:33:44;4.40;99.90
13697;DHT22;6920;50.080;8.226;2023-02-13T02:36:25;4.30;99.90
13697;DHT22;6920;50.080;8.226;2023-02-13T02:39:05;4.20;99.90
13697;DHT22;6920;50.080;8.226;2023-02-13T02:41:45;3.90;99.90
13697;DHT22;6920;50.080;8.226;2023-02-13T02:44:25;4.10;99.90
13697;DHT22;6920;50.080;8.226;2023-02-13T02:47:07;4.20;99.90
13697;DHT22;6920;50.080;8.226;2023-02-13T02:52:45;4.20;99.90
13697;DHT22;6920;50.080;8.226;2023-02-13T02:55:30;4.20;99.90
13697;DHT22;6920;50.080;8.226;2023-02-13T02:58:03;4.20;99.90
13697;DHT22;6920;50.080;8.226;2023-02-13T03:00:52;4.20;99.90
13697;DHT22;6920;50.080;8.226;2023-02-13T03:03:39;4.10;99.90
13697;DHT22;6920;50.080;8.226;2023-02-13T03:06:29;4.00;99.90
13697;DHT22;6920;50.080;8.226;2023-02-13T03:09:00;3.80;99.90
13697;DHT22;6920;50.080;8.226;2023-02-13T03:11:48;4.00;99.90
13697;DHT22;6920;50.080;8.226;2023-02-13T03:14:33;4.10;99.90
13697;DHT22;6920;50.080;8.226;2023-02-13T03:17:01;4.00;99.90
13697;DHT22;6920;50.080;8.226;2023-02-13T03:19:57;3.90;99.90
13697;DHT22;6920;50.080;8.226;2023-02-13T03:22:59;3.80;99.90
13697;DHT22;6920;50.080;8.226;2023-02-13T03:25:30;3.80;99.90
13697;DHT22;6920;50.080;8.226;2023-02-13T03:28:09;3.90;99.90
13697;DHT22;6920;50.080;8.226;2023-02-13T03:31:03;3.90;99.90
13697;DHT22;6920;50.080;8.226;2023-02-13T03:33:47;3.90;99.90
13697;DHT22;6920;50.080;8.226;2023-02-13T03:36:31;3.90;99.90
13697;DHT22;6920;50.080;8.226;2023-02-13T03:39:22;3.80;99.90
13697;DHT22;6920;50.080;8.226;2023-02-13T03:41:57;3.80;99.90
13697;DHT22;6920;50.080;8.226;2023-02-13T03:44:27;3.70;99.90
13697;DHT22;6920;50.080;8.226;2023-02-13T03:46:58;3.80;99.90
13697;DHT22;6920;50.080;8.226;2023-02-13T03:49:29;3.80;99.90
13697;DHT22;6920;50.080;8.226;2023-02-13T03:52:21;3.80;99.90
13697;DHT22;6920;50.080;8.226;2023-02-13T03:54:53;3.90;99.90
13697;DHT22;6920;50.080;8.226;2023-02-13T03:57:41;3.90;99.90
13697;DHT22;6920;50.080;8.226;2023-02-13T04:00:28;3.90;99.90
13697;DHT22;6920;50.080;8.226;2023-02-13T04:03:06;3.90;99.90
13697;DHT22;6920;50.080;8.226;2023-02-13T04:05:39;4.00;99.90
13697;DHT22;6920;50.080;8.226;2023-02-13T04:08:07;4.00;99.90
13697;DHT22;6920;50.080;8.226;2023-02-13T04:10:40;3.90;99.90
13697;DHT22;6920;50.080;8.226;2023-02-13T04:13:12;3.80;99.90
13697;DHT22;6920;50.080;8.226;2023-02-13T04:15:44;3.80;99.90
13697;DHT22;6920;50.080;8.226;2023-02-13T04:18:15;3.70;99.90
13697;DHT22;6920;50.080;8.226;2023-02-13T04:20:43;3.60;99.90
13697;DHT22;6920;50.080;8.226;2023-02-13T04:23:11;3.40;99.90
13697;DHT22;6920;50.080;8.226;2023-02-13T04:25:43;3.70;99.90
13697;DHT22;6920;50.080;8.226;2023-02-13T04:28:11;3.80;99.90
13697;DHT22;6920;50.080;8.226;2023-02-13T04:30:38;3.80;99.90
13697;DHT22;6920;50.080;8.226;2023-02-13T04:33:05;3.80;99.90
13697;DHT22;6920;50.080;8.226;2023-02-13T04:35:32;3.80;99.90
13697;DHT22;6920;50.080;8.226;2023-02-13T04:38:00;3.70;99.90
13697;DHT22;6920;50.080;8.226;2023-02-13T04:40:27;3.70;99.90
13697;DHT22;6920;50.080;8.226;2023-02-13T04:42:56;3.70;99.90
13697;DHT22;6920;50.080;8.226;2023-02-13T04:45:23;3.50;99.90
13697;DHT22;6920;50.080;8.226;2023-02-13T04:50:18;3.40;99.90
13697;DHT22;6920;50.080;8.226;2023-02-13T04:52:45;3.40;99.90
13697;DHT22;6920;50.080;8.226;2023-02-13T04:55:12;3.40;99.90
13697;DHT22;6920;50.080;8.226;2023-02-13T04:57:40;3.50;99.90
13697;DHT22;6920;50.080;8.226;2023-02-13T05:00:10;3.40;99.90
13697;DHT22;6920;50.080;8.226;2023-02-13T05:02:37;3.40;99.90
13697;DHT22;6920;50.080;8.226;2023-02-13T05:09:59;3.50;99.90
13697;DHT22;6920;50.080;8.226;2023-02-13T05:14:54;3.50;99.90
13697;DHT22;6920;50.080;8.226;2023-02-13T05:22:17;3.50;99.90
13697;DHT22;6920;50.080;8.226;2023-02-13T05:25:02;3.30;99.90
13697;DHT22;6920;50.080;8.226;2023-02-13T05:27:29;3.30;99.90
13697;DHT22;6920;50.080;8.226;2023-02-13T05:29:56;3.20;99.90
13697;DHT22;6920;50.080;8.226;2023-02-13T05:32:24;3.30;99.90
13697;DHT22;6920;50.080;8.226;2023-02-13T05:37:18;3.10;99.90
13697;DHT22;6920;50.080;8.226;2023-02-13T05:59:26;3.10;99.90
13697;DHT22;6920;50.080;8.226;2023-02-13T06:01:53;3.10;99.90
13697;DHT22;6920;50.080;8.226;2023-02-13T06:04:20;-1.70;99.90
13697;DHT22;6920;50.080;8.226;2023-02-13T06:06:49;2.80;99.90
13697;DHT22;6920;50.080;8.226;2023-02-13T06:09:16;2.80;99.90
13697;DHT22;6920;50.080;8.226;2023-02-13T06:11:43;2.80;99.90
13697;DHT22;6920;50.080;8.226;2023-02-13T06:14:11;2.80;99.90
13697;DHT22;6920;50.080;8.226;2023-02-13T06:16:38;2.80;99.90
13697;DHT22;6920;50.080;8.226;2023-02-13T06:21:35;3.00;99.90
13697;DHT22;6920;50.080;8.226;2023-02-13T06:24:05;3.00;99.90
13697;DHT22;6920;50.080;8.226;2023-02-13T06:26:33;3.00;99.90
13697;DHT22;6920;50.080;8.226;2023-02-13T06:29:01;2.90;99.90
13697;DHT22;6920;50.080;8.226;2023-02-13T06:31:28;2.80;99.90
13697;DHT22;6920;50.080;8.226;2023-02-13T06:33:57;2.80;99.90
13697;DHT22;6920;50.080;8.226;2023-02-13T06:36:27;3.00;99.90
13697;DHT22;6920;50.080;8.226;2023-02-13T06:41:23;2.90;99.90
13697;DHT22;6920;50.080;8.226;2023-02-13T06:56:10;2.80;99.90
13697;DHT22;6920;50.080;8.226;2023-02-13T06:58:39;2.80;99.90
13697;DHT22;6920;50.080;8.226;2023-02-13T07:01:06;2.80;99.90
13697;DHT22;6920;50.080;8.226;2023-02-13T07:03:33;2.90;99.90
13697;DHT22;6920;50.080;8.226;2023-02-13T07:10:56;2.90;99.90
13697;DHT22;6920;50.080;8.226;2023-02-13T07:13:23;3.00;99.90
13697;DHT22;6920;50.080;8.226;2023-02-13T07:18:19;3.00;99.90
13697;DHT22;6920;50.080;8.226;2023-02-13T07:23:14;3.00;99.90
13697;DHT22;6920;50.080;8.226;2023-02-13T07:30:42;3.10;99.90
13697;DHT22;6920;50.080;8.226;2023-02-13T07:33:10;3.10;99.90
13697;DHT22;6920;50.080;8.226;2023-02-13T07:38:06;3.20;99.90
13697;DHT22;6920;50.080;8.226;2023-02-13T07:40:34;3.30;99.90
13697;DHT22;6920;50.080;8.226;2023-02-13T07:43:01;3.40;99.90
13697;DHT22;6920;50.080;8.226;2023-02-13T07:47:56;3.40;99.90
13697;DHT22;6920;50.080;8.226;2023-02-13T07:50:25;3.50;99.90
13697;DHT22;6920;50.080;8.226;2023-02-13T07:52:53;3.40;99.90
13697;DHT22;6920;50.080;8.226;2023-02-13T07:55:21;3.70;99.90
13697;DHT22;6920;50.080;8.226;2023-02-13T08:02:44;3.90;99.90
13697;DHT22;6920;50.080;8.226;2023-02-13T08:05:12;4.00;99.90
13697;DHT22;6920;50.080;8.226;2023-02-13T08:07:41;4.10;99.90
13697;DHT22;6920;50.080;8.226;2023-02-13T08:10:10;4.30;99.90
13697;DHT22;6920;50.080;8.226;2023-02-13T08:12:56;4.60;99.90
13697;DHT22;6920;50.080;8.226;2023-02-13T08:15:23;4.70;99.90
13697;DHT22;6920;50.080;8.226;2023-02-13T08:17:50;4.80;99.90
13697;DHT22;6920;50.080;8.226;2023-02-13T08:22:46;4.90;99.90
13697;DHT22;6920;50.080;8.226;2023-02-13T08:35:13;5.50;99.90
13697;DHT22;6920;50.080;8.226;2023-02-13T08:37:41;5.60;99.90
13697;DHT22;6920;50.080;8.226;2023-02-13T08:40:11;5.70;99.90
13697;DHT22;6920;50.080;8.226;2023-02-13T08:42:39;5.90;99.90
13697;DHT22;6920;50.080;8.226;2023-02-13T08:45:07;5.90;99.90
13697;DHT22;6920;50.080;8.226;2023-02-13T08:47:36;6.00;99.90
13697;DHT22;6920;50.080;8.226;2023-02-13T08:50:05;6.10;99.90
13697;DHT22;6920;50.080;8.226;2023-02-13T08:52:32;6.30;99.90
13697;DHT22;6920;50.080;8.226;2023-02-13T08:57:30;6.50;99.90
13697;DHT22;6920;50.080;8.226;2023-02-13T08:59:57;6.70;99.90
13697;DHT22;6920;50.080;8.226;2023-02-13T09:02:24;6.80;99.90
13697;DHT22;6920;50.080;8.226;2023-02-13T09:04:52;6.90;99.90
13697;DHT22;6920;50.080;8.226;2023-02-13T09:09:46;7.10;99.90
13697;DHT22;6920;50.080;8.226;2023-02-13T09:12:14;7.20;99.90
13697;DHT22;6920;50.080;8.226;2023-02-13T09:14:42;7.30;99.90
13697;DHT22;6920;50.080;8.226;2023-02-13T09:17:10;7.40;99.90
13697;DHT22;6920;50.080;8.226;2023-02-13T09:19:39;7.60;99.90
13697;DHT22;6920;50.080;8.226;2023-02-13T09:27:01;7.90;99.90
13697;DHT22;6920;50.080;8.226;2023-02-13T09:29:30;8.00;99.90
13697;DHT22;6920;50.080;8.226;2023-02-13T09:32:00;8.10;99.90
13697;DHT22;6920;50.080;8.226;2023-02-13T09:34:27;8.20;99.90
13697;DHT22;6920;50.080;8.226;2023-02-13T09:36:55;8.40;99.90
13697;DHT22;6920;50.080;8.226;2023-02-13T09:39:22;8.50;99.90
13697;DHT22;6920;50.080;8.226;2023-02-13T09:41:50;8.60;99.90
13697;DHT22;6920;50.080;8.226;2023-02-13T09:44:22;8.50;99.90
13697;DHT22;6920;50.080;8.226;2023-02-13T09:47:10;8.60;99.90
13697;DHT22;6920;50.080;8.226;2023-02-13T09:49:43;8.90;99.90
13697;DHT22;6920;50.080;8.226;2023-02-13T09:52:11;8.90;99.90
13697;DHT22;6920;50.080;8.226;2023-02-13T09:54:39;9.20;99.90
13697;DHT22;6920;50.080;8.226;2023-02-13T09:57:13;9.00;99.90
13697;DHT22;6920;50.080;8.226;2023-02-13T09:59:51;9.10;99.90
13697;DHT22;6920;50.080;8.226;2023-02-13T10:02:41;9.10;99.90
13697;DHT22;6920;50.080;8.226;2023-02-13T10:05:22;9.10;99.90
13697;DHT22;6920;50.080;8.226;2023-02-13T10:07:58;9.30;99.90
13697;DHT22;6920;50.080;8.226;2023-02-13T10:10:37;9.40;99.90
13697;DHT22;6920;50.080;8.226;2023-02-13T10:13:17;9.60;99.90
13697;DHT22;6920;50.080;8.226;2023-02-13T10:15:52;9.60;99.90
13697;DHT22;6920;50.080;8.226;2023-02-13T10:18:24;9.90;99.90
13697;DHT22;6920;50.080;8.226;2023-02-13T10:20:59;10.10;99.90
13697;DHT22;6920;50.080;8.226;2023-02-13T10:23:33;10.20;99.90
13697;DHT22;6920;50.080;8.226;2023-02-13T10:26:05;10.30;99.90
13697;DHT22;6920;50.080;8.226;2023-02-13T10:28:37;10.30;99.90
13697;DHT22;6920;50.080;8.226;2023-02-13T10:31:07;10.70;99.90
13697;DHT22;6920;50.080;8.226;2023-02-13T10:33:53;10.80;99.90
13697;DHT22;6920;50.080;8.226;2023-02-13T10:36:24;11.10;99.90
13697;DHT22;6920;50.080;8.226;2023-02-13T10:38:56;11.30;99.90
13697;DHT22;6920;50.080;8.226;2023-02-13T10:41:35;11.60;99.90
13697;DHT22;6920;50.080;8.226;2023-02-13T10:44:27;11.50;99.90
13697;DHT22;6920;50.080;8.226;2023-02-13T10:47:03;11.50;99.90
13697;DHT22;6920;50.080;8.226;2023-02-13T10:49:45;11.90;99.90
13697;DHT22;6920;50.080;8.226;2023-02-13T10:52:24;11.90;99.90
13697;DHT22;6920;50.080;8.226;2023-02-13T10:55:09;12.20;99.90
13697;DHT22;6920;50.080;8.226;2023-02-13T10:57:56;12.10;99.90
13697;DHT22;6920;50.080;8.226;2023-02-13T11:00:30;12.10;99.90
13697;DHT22;6920;50.080;8.226;2023-02-13T11:03:00;12.60;99.90
13697;DHT22;6920;50.080;8.226;2023-02-13T11:05:32;12.90;99.90
13697;DHT22;6920;50.080;8.226;2023-02-13T11:10:29;13.30;99.90
13697;DHT22;6920;50.080;8.226;2023-02-13T11:12:57;12.80;99.90
13697;DHT22;6920;50.080;8.226;2023-02-13T11:15:40;13.40;99.90
13697;DHT22;6920;50.080;8.226;2023-02-13T11:18:14;13.80;99.90
13697;DHT22;6920;50.080;8.226;2023-02-13T11:20:46;13.70;99.90
13697;DHT22;6920;50.080;8.226;2023-02-13T11:23:27;13.90;99.90
13697;DHT22;6920;50.080;8.226;2023-02-13T11:26:01;14.00;99.90
13697;DHT22;6920;50.080;8.226;2023-02-13T11:28:30;14.30;99.90
13697;DHT22;6920;50.080;8.226;2023-02-13T11:31:18;13.60;99.90
13697;DHT22;6920;50.080;8.226;2023-02-13T11:33:47;13.50;99.90
13697;DHT22;6920;50.080;8.226;2023-02-13T11:36:25;13.60;99.90
13697;DHT22;6920;50.080;8.226;2023-02-13T11:39:06;13.80;99.90
13697;DHT22;6920;50.080;8.226;2023-02-13T11:41:39;14.40;99.90
13697;DHT22;6920;50.080;8.226;2023-02-13T11:44:20;14.60;99.90
13697;DHT22;6920;50.080;8.226;2023-02-13T11:46:49;14.60;99.90
13697;DHT22;6920;50.080;8.226;2023-02-13T11:49:20;14.50;99.90
13697;DHT22;6920;50.080;8.226;2023-02-13T11:51:50;14.60;99.90
13697;DHT22;6920;50.080;8.226;2023-02-13T11:54:30;14.60;99.90
13697;DHT22;6920;50.080;8.226;2023-02-13T11:57:00;14.40;99.90
13697;DHT22;6920;50.080;8.226;2023-02-13T11:59:32;14.40;99.90
13697;DHT22;6920;50.080;8.226;2023-02-13T12:02:12;14.60;99.90
13697;DHT22;6920;50.080;8.226;2023-02-13T12:04:40;14.60;99.90
13697;DHT22;6920;50.080;8.226;2023-02-13T12:07:22;14.60;99.90
13697;DHT22;6920;50.080;8.226;2023-02-13T12:09:56;14.70;99.90
13697;DHT22;6920;50.080;8.226;2023-02-13T12:12:31;15.00;99.90
13697;DHT22;6920;50.080;8.226;2023-02-13T12:15:06;15.20;99.90
13697;DHT22;6920;50.080;8.226;2023-02-13T12:17:42;15.40;99.90
13697;DHT22;6920;50.080;8.226;2023-02-13T12:20:13;15.50;99.90
13697;DHT22;6920;50.080;8.226;2023-02-13T12:22:52;14.60;99.90
13697;DHT22;6920;50.080;8.226;2023-02-13T12:25:43;13.90;99.90
13697;DHT22;6920;50.080;8.226;2023-02-13T12:28:14;14.40;99.90
13697;DHT22;6920;50.080;8.226;2023-02-13T12:30:58;15.30;99.90
13697;DHT22;6920;50.080;8.226;2023-02-13T12:36:40;15.20;99.90
13697;DHT22;6920;50.080;8.226;2023-02-13T12:39:17;15.50;99.90
13697;DHT22;6920;50.080;8.226;2023-02-13T12:41:59;14.90;99.90
13697;DHT22;6920;50.080;8.226;2023-02-13T12:44:56;15.30;99.90
13697;DHT22;6920;50.080;8.226;2023-02-13T12:47:30;15.40;99.90
13697;DHT22;6920;50.080;8.226;2023-02-13T12:53:10;15.10;99.90
13697;DHT22;6920;50.080;8.226;2023-02-13T12:55:58;14.90;99.90
13697;DHT22;6920;50.080;8.226;2023-02-13T12:58:55;15.10;99.90
13697;DHT22;6920;50.080;8.226;2023-02-13T13:01:37;15.10;99.90
13697;DHT22;6920;50.080;8.226;2023-02-13T13:04:18;15.60;99.90
13697;DHT22;6920;50.080;8.226;2023-02-13T13:09:57;15.30;99.90
13697;DHT22;6920;50.080;8.226;2023-02-13T13:12:38;15.00;99.90
13697;DHT22;6920;50.080;8.226;2023-02-13T13:15:16;15.50;99.90
13697;DHT22;6920;50.080;8.226;2023-02-13T13:17:58;16.10;99.90
13697;DHT22;6920;50.080;8.226;2023-02-13T13:23:12;16.20;99.90
13697;DHT22;6920;50.080;8.226;2023-02-13T13:25:47;16.50;99.90
13697;DHT22;6920;50.080;8.226;2023-02-13T13:28:21;17.00;99.90
13697;DHT22;6920;50.080;8.226;2023-02-13T13:33:18;17.50;99.90
13697;DHT22;6920;50.080;8.226;2023-02-13T13:35:54;17.90;99.90
13697;DHT22;6920;50.080;8.226;2023-02-13T13:38:30;18.10;99.90
13697;DHT22;6920;50.080;8.226;2023-02-13T13:41:07;17.70;99.90
13697;DHT22;6920;50.080;8.226;2023-02-13T13:43:46;13.90;99.90
13697;DHT22;6920;50.080;8.226;2023-02-13T13:46:20;17.20;99.90
13697;DHT22;6920;50.080;8.226;2023-02-13T13:49:08;17.60;99.90
13697;DHT22;6920;50.080;8.226;2023-02-13T13:54:18;17.70;99.90
13697;DHT22;6920;50.080;8.226;2023-02-13T13:57:06;16.80;99.90
13697;DHT22;6920;50.080;8.226;2023-02-13T14:02:46;17.00;99.90
13697;DHT22;6920;50.080;8.226;2023-02-13T14:05:23;15.60;99.90
13697;DHT22;6920;50.080;8.226;2023-02-13T14:07:53;15.40;99.90
13697;DHT22;6920;50.080;8.226;2023-02-13T14:13:36;16.60;99.90
13697;DHT22;6920;50.080;8.226;2023-02-13T14:16:05;16.70;99.90
13697;DHT22;6920;50.080;8.226;2023-02-13T14:18:36;16.20;99.90
13697;DHT22;6920;50.080;8.226;2023-02-13T14:21:05;15.90;99.90
13697;DHT22;6920;50.080;8.226;2023-02-13T14:23:36;16.90;99.90
13697;DHT22;6920;50.080;8.226;2023-02-13T14:26:32;17.00;99.90
13697;DHT22;6920;50.080;8.226;2023-02-13T14:29:20;17.30;99.90
13697;DHT22;6920;50.080;8.226;2023-02-13T14:32:03;17.90;99.90
13697;DHT22;6920;50.080;8.226;2023-02-13T14:34:35;17.30;99.90
13697;DHT22;6920;50.080;8.226;2023-02-13T14:37:18;16.90;99.90
13697;DHT22;6920;50.080;8.226;2023-02-13T14:43:27;14.60;99.90
13697;DHT22;6920;50.080;8.226;2023-02-13T14:45:57;14.40;99.90
13697;DHT22;6920;50.080;8.226;2023-02-13T14:48:35;13.90;99.90
13697;DHT22;6920;50.080;8.226;2023-02-13T14:51:05;13.50;99.90
13697;DHT22;6920;50.080;8.226;2023-02-13T14:53:40;13.40;99.90
13697;DHT22;6920;50.080;8.226;2023-02-13T14:56:14;13.20;99.90
13697;DHT22;6920;50.080;8.226;2023-02-13T14:58:47;13.10;99.90
13697;DHT22;6920;50.080;8.226;2023-02-13T15:01:24;13.00;99.90
13697;DHT22;6920;50.080;8.226;2023-02-13T15:03:58;12.90;99.90
13697;DHT22;6920;50.080;8.226;2023-02-13T15:06:29;12.60;99.90
13697;DHT22;6920;50.080;8.226;2023-02-13T15:09:02;12.30;99.90
13697;DHT22;6920;50.080;8.226;2023-02-13T15:11:36;12.40;99.90
13697;DHT22;6920;50.080;8.226;2023-02-13T15:14:22;12.30;99.90
13697;DHT22;6920;50.080;8.226;2023-02-13T15:16:53;12.30;99.90
13697;DHT22;6920;50.080;8.226;2023-02-13T15:19:22;12.30;99.90
13697;DHT22;6920;50.080;8.226;2023-02-13T15:21:54;12.20;99.90
13697;DHT22;6920;50.080;8.226;2023-02-13T15:24:23;12.20;99.90
13697;DHT22;6920;50.080;8.226;2023-02-13T15:26:59;12.30;99.90
13697;DHT22;6920;50.080;8.226;2023-02-13T15:31:55;12.30;99.90
13697;DHT22;6920;50.080;8.226;2023-02-13T15:34:25;12.30;99.90
13697;DHT22;6920;50.080;8.226;2023-02-13T15:36:55;12.20;99.90
13697;DHT22;6920;50.080;8.226;2023-02-13T15:39:24;12.10;99.90
13697;DHT22;6920;50.080;8.226;2023-02-13T15:41:54;12.00;99.90
13697;DHT22;6920;50.080;8.226;2023-02-13T15:44:26;12.00;99.90
13697;DHT22;6920;50.080;8.226;2023-02-13T15:47:04;12.00;99.90
13697;DHT22;6920;50.080;8.226;2023-02-13T15:49:37;11.90;99.90
13697;DHT22;6920;50.080;8.226;2023-02-13T15:52:08;12.00;99.90
13697;DHT22;6920;50.080;8.226;2023-02-13T15:54:48;12.00;99.90
13697;DHT22;6920;50.080;8.226;2023-02-13T15:57:16;12.00;99.90
13697;DHT22;6920;50.080;8.226;2023-02-13T15:59:44;12.00;99.90
13697;DHT22;6920;50.080;8.226;2023-02-13T16:02:15;11.90;99.90
13697;DHT22;6920;50.080;8.226;2023-02-13T16:04:45;11.90;99.90
13697;DHT22;6920;50.080;8.226;2023-02-13T16:09:42;11.80;99.90
13697;DHT22;6920;50.080;8.226;2023-02-13T16:12:18;11.70;99.90
13697;DHT22;6920;50.080;8.226;2023-02-13T16:14:50;11.70;99.90
13697;DHT22;6920;50.080;8.226;2023-02-13T16:17:26;11.60;99.90
13697;DHT22;6920;50.080;8.226;2023-02-13T16:19:57;11.60;99.90
13697;DHT22;6920;50.080;8.226;2023-02-13T16:22:31;11.70;99.90
13697;DHT22;6920;50.080;8.226;2023-02-13T16:25:15;11.60;99.90
13697;DHT22;6920;50.080;8.226;2023-02-13T16:27:45;11.60;99.90
13697;DHT22;6920;50.080;8.226;2023-02-13T16:30:24;11.40;99.90
13697;DHT22;6920;50.080;8.226;2023-02-13T16:32:53;11.40;99.90
13697;DHT22;6920;50.080;8.226;2023-02-13T16:35:36;11.30;99.90
13697;DHT22;6920;50.080;8.226;2023-02-13T16:38:28;11.30;99.90
13697;DHT22;6920;50.080;8.226;2023-02-13T16:40:57;11.10;99.90
13697;DHT22;6920;50.080;8.226;2023-02-13T16:43:40;11.10;99.90
13697;DHT22;6920;50.080;8.226;2023-02-13T16:46:25;11.10;99.90
13697;DHT22;6920;50.080;8.226;2023-02-13T16:49:15;11.10;99.90
13697;DHT22;6920;50.080;8.226;2023-02-13T16:51:45;11.00;99.90
13697;DHT22;6920;50.080;8.226;2023-02-13T16:54:19;10.90;99.90
13697;DHT22;6920;50.080;8.226;2023-02-13T16:56:49;10.90;99.90
13697;DHT22;6920;50.080;8.226;2023-02-13T16:59:23;10.80;99.90
13697;DHT22;6920;50.080;8.226;2023-02-13T17:02:10;10.80;99.90
13697;DHT22;6920;50.080;8.226;2023-02-13T17:04:39;10.70;99.90
13697;DHT22;6920;50.080;8.226;2023-02-13T17:09:40;10.50;99.90
13697;DHT22;6920;50.080;8.226;2023-02-13T17:12:13;10.40;99.90
13697;DHT22;6920;50.080;8.226;2023-02-13T17:17:11;10.30;99.90
13697;DHT22;6920;50.080;8.226;2023-02-13T17:19:38;10.20;99.90
13697;DHT22;6920;50.080;8.226;2023-02-13T17:22:06;10.10;99.90
13697;DHT22;6920;50.080;8.226;2023-02-13T17:29:30;9.60;99.90
13697;DHT22;6920;50.080;8.226;2023-02-13T17:31:58;9.40;99.90
13697;DHT22;6920;50.080;8.226;2023-02-13T17:34:25;9.20;99.90
13697;DHT22;6920;50.080;8.226;2023-02-13T17:36:52;9.40;99.90
13697;DHT22;6920;50.080;8.226;2023-02-13T17:39:19;9.20;99.90
13697;DHT22;6920;50.080;8.226;2023-02-13T17:41:47;8.90;99.90
13697;DHT22;6920;50.080;8.226;2023-02-13T17:46:44;8.60;99.90
13697;DHT22;6920;50.080;8.226;2023-02-13T17:49:11;8.50;99.90
13697;DHT22;6920;50.080;8.226;2023-02-13T17:51:39;8.40;99.90
13697;DHT22;6920;50.080;8.226;2023-02-13T17:54:09;8.30;99.90
13697;DHT22;6920;50.080;8.226;2023-02-13T17:56:37;8.20;99.90
13697;DHT22;6920;50.080;8.226;2023-02-13T18:01:33;8.10;99.90
13697;DHT22;6920;50.080;8.226;2023-02-13T18:04:02;8.10;99.90
13697;DHT22;6920;50.080;8.226;2023-02-13T18:08:56;7.90;99.90
13697;DHT22;6920;50.080;8.226;2023-02-13T18:11:24;7.90;99.90
13697;DHT22;6920;50.080;8.226;2023-02-13T18:13:51;7.80;99.90
13697;DHT22;6920;50.080;8.226;2023-02-13T18:16:18;7.40;99.90
13697;DHT22;6920;50.080;8.226;2023-02-13T18:21:21;7.20;99.90
13697;DHT22;6920;50.080;8.226;2023-02-13T18:23:51;7.20;99.90
13697;DHT22;6920;50.080;8.226;2023-02-13T18:26:18;7.20;99.90
13697;DHT22;6920;50.080;8.226;2023-02-13T18:28:45;7.00;99.90
13697;DHT22;6920;50.080;8.226;2023-02-13T18:31:17;6.90;99.90
13697;DHT22;6920;50.080;8.226;2023-02-13T18:33:44;6.90;99.90
13697;DHT22;6920;50.080;8.226;2023-02-13T18:43:36;6.70;99.90
13697;DHT22;6920;50.080;8.226;2023-02-13T18:46:04;6.20;99.90
13697;DHT22;6920;50.080;8.226;2023-02-13T18:50:59;6.70;99.90
13697;DHT22;6920;50.080;8.226;2023-02-13T18:53:28;6.70;99.90
13697;DHT22;6920;50.080;8.226;2023-02-13T18:55:59;6.50;99.90
13697;DHT22;6920;50.080;8.226;2023-02-13T19:03:22;6.30;99.90
13697;DHT22;6920;50.080;8.226;2023-02-13T19:08:19;6.30;99.90
13697;DHT22;6920;50.080;8.226;2023-02-13T19:13:16;6.40;99.90
13697;DHT22;6920;50.080;8.226;2023-02-13T19:15:47;6.30;99.90
13697;DHT22;6920;50.080;8.226;2023-02-13T19:18:17;6.20;99.90
13697;DHT22;6920;50.080;8.226;2023-02-13T19:20:48;6.20;99.90
13697;DHT22;6920;50.080;8.226;2023-02-13T19:23:19;6.20;99.90
13697;DHT22;6920;50.080;8.226;2023-02-13T19:25:49;6.00;99.90
13697;DHT22;6920;50.080;8.226;2023-02-13T19:28:30;5.90;99.90
13697;DHT22;6920;50.080;8.226;2023-02-13T19:31:01;5.80;99.90
13697;DHT22;6920;50.080;8.226;2023-02-13T19:33:31;5.70;99.90
13697;DHT22;6920;50.080;8.226;2023-02-13T19:36:02;5.70;99.90
13697;DHT22;6920;50.080;8.226;2023-02-13T19:41:03;5.50;99.90
13697;DHT22;6920;50.080;8.226;2023-02-13T19:43:30;5.40;99.90
13697;DHT22;6920;50.080;8.226;2023-02-13T19:46:00;5.40;99.90
13697;DHT22;6920;50.080;8.226;2023-02-13T19:48:29;5.40;99.90
13697;DHT22;6920;50.080;8.226;2023-02-13T19:55:57;5.30;99.90
13697;DHT22;6920;50.080;8.226;2023-02-13T19:58:26;5.30;99.90
13697;DHT22;6920;50.080;8.226;2023-02-13T20:01:05;5.30;99.90
13697;DHT22;6920;50.080;8.226;2023-02-13T20:06:02;5.20;99.90
13697;DHT22;6920;50.080;8.226;2023-02-13T20:08:30;5.10;99.90